CPX224 Details

Departure: Los Angeles International Airport (KLAX) at 1730 UTC
Arrival: Ted Stevens Anchorage International Airport (PANC) at 2210 UTC
Route: SUMMR1 SCTRR PYE J143 ENI FOT BOXER B453 MDO WITTI4
Notes:


Current Weather Information
KLAX 250453Z 24007KT 10SM SCT007 21/18 A2996 RMK AO2 SLP143 T02110183 VISNO RWY24 $
PANC 250453Z 00000KT 10SM FEW060 SCT200 16/09 A2976 RMK AO2 SLP079 T01560094